sensor_id;sensor_type;location;lat;lon;timestamp;temperature;humidity
36280;DHT22;22317;47.936;12.742;2023-03-14T00:00:22;6.20;51.90
36280;DHT22;22317;47.936;12.742;2023-03-14T00:02:54;6.40;51.60
36280;DHT22;22317;47.936;12.742;2023-03-14T00:05:20;6.50;51.50
36280;DHT22;22317;47.936;12.742;2023-03-14T00:07:46;6.70;51.20
36280;DHT22;22317;47.936;12.742;2023-03-14T00:10:14;6.90;51.10
36280;DHT22;22317;47.936;12.742;2023-03-14T00:12:41;7.00;51.10
36280;DHT22;22317;47.936;12.742;2023-03-14T00:15:07;7.10;50.90
36280;DHT22;22317;47.936;12.742;2023-03-14T00:17:34;7.30;50.90
36280;DHT22;22317;47.936;12.742;2023-03-14T00:20:00;7.40;50.90
36280;DHT22;22317;47.936;12.742;2023-03-14T00:22:41;7.50;50.90
36280;DHT22;22317;47.936;12.742;2023-03-14T00:25:08;7.60;50.90
36280;DHT22;22317;47.936;12.742;2023-03-14T00:27:35;7.70;50.80
36280;DHT22;22317;47.936;12.742;2023-03-14T00:30:02;7.70;50.80
36280;DHT22;22317;47.936;12.742;2023-03-14T00:32:29;7.80;50.90
36280;DHT22;22317;47.936;12.742;2023-03-14T00:34:54;7.90;50.90
36280;DHT22;22317;47.936;12.742;2023-03-14T00:37:20;8.00;50.80
36280;DHT22;22317;47.936;12.742;2023-03-14T00:39:46;8.10;50.80
36280;DHT22;22317;47.936;12.742;2023-03-14T00:42:13;8.10;50.70
36280;DHT22;22317;47.936;12.742;2023-03-14T00:44:39;8.20;50.70
36280;DHT22;22317;47.936;12.742;2023-03-14T00:47:06;8.20;50.70
36280;DHT22;22317;47.936;12.742;2023-03-14T00:49:32;8.20;50.60
36280;DHT22;22317;47.936;12.742;2023-03-14T00:51:58;8.30;50.60
36280;DHT22;22317;47.936;12.742;2023-03-14T00:54:23;8.30;50.50
36280;DHT22;22317;47.936;12.742;2023-03-14T00:56:49;8.40;50.50
36280;DHT22;22317;47.936;12.742;2023-03-14T00:59:16;8.50;51.10
36280;DHT22;22317;47.936;12.742;2023-03-14T01:01:42;8.50;50.40
36280;DHT22;22317;47.936;12.742;2023-03-14T01:04:07;8.60;50.30
36280;DHT22;22317;47.936;12.742;2023-03-14T01:06:33;8.60;50.20
36280;DHT22;22317;47.936;12.742;2023-03-14T01:09:00;8.60;50.00
36280;DHT22;22317;47.936;12.742;2023-03-14T01:11:28;8.60;50.00
36280;DHT22;22317;47.936;12.742;2023-03-14T01:13:56;8.60;49.90
36280;DHT22;22317;47.936;12.742;2023-03-14T01:16:25;8.60;49.80
36280;DHT22;22317;47.936;12.742;2023-03-14T01:18:52;8.70;49.70
36280;DHT22;22317;47.936;12.742;2023-03-14T01:21:29;8.60;49.50
36280;DHT22;22317;47.936;12.742;2023-03-14T01:23:57;8.50;50.40
36280;DHT22;22317;47.936;12.742;2023-03-14T01:26:25;8.50;49.70
36280;DHT22;22317;47.936;12.742;2023-03-14T01:28:53;8.50;49.80
36280;DHT22;22317;47.936;12.742;2023-03-14T01:31:19;8.50;49.80
36280;DHT22;22317;47.936;12.742;2023-03-14T01:33:45;8.50;49.80
36280;DHT22;22317;47.936;12.742;2023-03-14T01:36:12;8.50;49.90
36280;DHT22;22317;47.936;12.742;2023-03-14T01:38:38;8.50;50.00
36280;DHT22;22317;47.936;12.742;2023-03-14T01:41:08;8.50;50.00
36280;DHT22;22317;47.936;12.742;2023-03-14T01:43:37;8.40;50.00
36280;DHT22;22317;47.936;12.742;2023-03-14T01:51:31;8.40;50.10
36280;DHT22;22317;47.936;12.742;2023-03-14T01:54:17;8.40;50.30
36280;DHT22;22317;47.936;12.742;2023-03-14T01:56:47;8.40;50.20
36280;DHT22;22317;47.936;12.742;2023-03-14T01:59:13;8.40;50.10
36280;DHT22;22317;47.936;12.742;2023-03-14T02:01:42;8.30;50.20
36280;DHT22;22317;47.936;12.742;2023-03-14T02:04:11;8.30;50.30
36280;DHT22;22317;47.936;12.742;2023-03-14T02:07:00;8.40;50.40
36280;DHT22;22317;47.936;12.742;2023-03-14T02:09:31;8.40;50.50
36280;DHT22;22317;47.936;12.742;2023-03-14T02:11:58;8.40;50.30
36280;DHT22;22317;47.936;12.742;2023-03-14T02:14:44;8.40;50.30
36280;DHT22;22317;47.936;12.742;2023-03-14T02:17:34;8.40;50.30
36280;DHT22;22317;47.936;12.742;2023-03-14T02:20:30;8.30;50.30
36280;DHT22;22317;47.936;12.742;2023-03-14T02:22:58;8.30;50.40
36280;DHT22;22317;47.936;12.742;2023-03-14T02:26:03;8.30;50.40
36280;DHT22;22317;47.936;12.742;2023-03-14T02:28:30;8.30;51.30
36280;DHT22;22317;47.936;12.742;2023-03-14T02:30:59;8.30;50.40
36280;DHT22;22317;47.936;12.742;2023-03-14T02:33:25;8.30;50.50
36280;DHT22;22317;47.936;12.742;2023-03-14T02:35:55;8.30;50.60
36280;DHT22;22317;47.936;12.742;2023-03-14T02:38:47;8.30;50.70
36280;DHT22;22317;47.936;12.742;2023-03-14T02:41:16;8.30;50.80
36280;DHT22;22317;47.936;12.742;2023-03-14T02:43:48;8.30;50.70
36280;DHT22;22317;47.936;12.742;2023-03-14T02:46:18;8.20;50.70
36280;DHT22;22317;47.936;12.742;2023-03-14T02:49:11;8.20;50.90
36280;DHT22;22317;47.936;12.742;2023-03-14T02:51:38;8.20;51.40
36280;DHT22;22317;47.936;12.742;2023-03-14T02:54:05;8.10;51.20
36280;DHT22;22317;47.936;12.742;2023-03-14T02:56:31;8.00;51.30
36280;DHT22;22317;47.936;12.742;2023-03-14T02:58:57;8.20;51.80
36280;DHT22;22317;47.936;12.742;2023-03-14T03:01:44;8.10;52.10
36280;DHT22;22317;47.936;12.742;2023-03-14T03:04:10;8.10;52.30
36280;DHT22;22317;47.936;12.742;2023-03-14T03:06:36;8.10;52.50
36280;DHT22;22317;47.936;12.742;2023-03-14T03:09:02;8.10;53.30
36280;DHT22;22317;47.936;12.742;2023-03-14T03:11:27;8.10;53.00
36280;DHT22;22317;47.936;12.742;2023-03-14T03:13:54;8.10;53.20
36280;DHT22;22317;47.936;12.742;2023-03-14T03:16:20;8.20;53.40
36280;DHT22;22317;47.936;12.742;2023-03-14T03:18:46;8.10;53.50
36280;DHT22;22317;47.936;12.742;2023-03-14T03:21:12;8.10;53.80
36280;DHT22;22317;47.936;12.742;2023-03-14T03:23:38;8.10;54.00
36280;DHT22;22317;47.936;12.742;2023-03-14T03:26:05;8.10;54.30
36280;DHT22;22317;47.936;12.742;2023-03-14T03:28:31;8.10;54.50
36280;DHT22;22317;47.936;12.742;2023-03-14T03:30:58;8.10;54.70
36280;DHT22;22317;47.936;12.742;2023-03-14T03:33:24;8.20;54.90
36280;DHT22;22317;47.936;12.742;2023-03-14T03:35:50;8.20;55.00
36280;DHT22;22317;47.936;12.742;2023-03-14T03:38:22;8.20;55.10
36280;DHT22;22317;47.936;12.742;2023-03-14T03:40:51;8.20;55.80
36280;DHT22;22317;47.936;12.742;2023-03-14T03:43:17;8.20;55.40
36280;DHT22;22317;47.936;12.742;2023-03-14T03:45:46;8.10;55.40
36280;DHT22;22317;47.936;12.742;2023-03-14T03:48:11;8.10;55.60
36280;DHT22;22317;47.936;12.742;2023-03-14T03:50:44;6.50;54.90
36280;DHT22;22317;47.936;12.742;2023-03-14T03:53:10;8.00;56.10
36280;DHT22;22317;47.936;12.742;2023-03-14T03:55:35;8.00;56.00
36280;DHT22;22317;47.936;12.742;2023-03-14T03:58:01;7.90;56.20
36280;DHT22;22317;47.936;12.742;2023-03-14T04:00:27;7.90;56.40
36280;DHT22;22317;47.936;12.742;2023-03-14T04:02:53;7.80;56.60
36280;DHT22;22317;47.936;12.742;2023-03-14T04:05:19;7.80;56.70
36280;DHT22;22317;47.936;12.742;2023-03-14T04:07:54;7.70;56.90
36280;DHT22;22317;47.936;12.742;2023-03-14T04:10:24;7.70;57.10
36280;DHT22;22317;47.936;12.742;2023-03-14T04:13:08;7.70;57.30
36280;DHT22;22317;47.936;12.742;2023-03-14T04:15:35;7.60;57.50
36280;DHT22;22317;47.936;12.742;2023-03-14T04:18:07;7.60;57.50
36280;DHT22;22317;47.936;12.742;2023-03-14T04:20:34;7.50;57.60
36280;DHT22;22317;47.936;12.742;2023-03-14T04:23:01;7.40;57.70
36280;DHT22;22317;47.936;12.742;2023-03-14T04:25:27;7.30;57.90
36280;DHT22;22317;47.936;12.742;2023-03-14T04:27:55;7.30;58.00
36280;DHT22;22317;47.936;12.742;2023-03-14T04:30:24;7.20;58.20
36280;DHT22;22317;47.936;12.742;2023-03-14T04:32:53;7.20;58.50
36280;DHT22;22317;47.936;12.742;2023-03-14T04:35:21;7.10;58.70
36280;DHT22;22317;47.936;12.742;2023-03-14T04:37:48;7.10;58.80
36280;DHT22;22317;47.936;12.742;2023-03-14T04:40:15;7.00;59.00
36280;DHT22;22317;47.936;12.742;2023-03-14T04:42:41;7.00;59.10
36280;DHT22;22317;47.936;12.742;2023-03-14T04:45:08;7.00;59.20
36280;DHT22;22317;47.936;12.742;2023-03-14T04:47:35;6.90;59.20
36280;DHT22;22317;47.936;12.742;2023-03-14T04:50:02;6.90;59.30
36280;DHT22;22317;47.936;12.742;2023-03-14T04:52:28;6.90;59.30
36280;DHT22;22317;47.936;12.742;2023-03-14T04:54:54;6.90;59.30
36280;DHT22;22317;47.936;12.742;2023-03-14T04:57:22;6.90;59.40
36280;DHT22;22317;47.936;12.742;2023-03-14T04:59:48;6.90;59.40
36280;DHT22;22317;47.936;12.742;2023-03-14T05:02:34;6.90;59.30
36280;DHT22;22317;47.936;12.742;2023-03-14T05:05:15;7.00;59.40
36280;DHT22;22317;47.936;12.742;2023-03-14T05:08:00;7.00;59.30
36280;DHT22;22317;47.936;12.742;2023-03-14T05:10:56;7.00;59.20
36280;DHT22;22317;47.936;12.742;2023-03-14T05:13:51;7.00;59.20
36280;DHT22;22317;47.936;12.742;2023-03-14T05:16:46;7.00;59.10
36280;DHT22;22317;47.936;12.742;2023-03-14T05:19:40;7.00;59.10
36280;DHT22;22317;47.936;12.742;2023-03-14T05:22:42;7.00;59.20
36280;DHT22;22317;47.936;12.742;2023-03-14T05:25:26;7.00;59.00
36280;DHT22;22317;47.936;12.742;2023-03-14T05:28:10;7.00;59.00
36280;DHT22;22317;47.936;12.742;2023-03-14T05:31:09;7.00;59.00
36280;DHT22;22317;47.936;12.742;2023-03-14T05:34:10;7.00;59.00
36280;DHT22;22317;47.936;12.742;2023-03-14T05:36:44;6.90;59.00
36280;DHT22;22317;47.936;12.742;2023-03-14T05:39:18;6.90;59.10
36280;DHT22;22317;47.936;12.742;2023-03-14T05:42:10;6.90;59.10
36280;DHT22;22317;47.936;12.742;2023-03-14T05:45:05;6.80;59.20
36280;DHT22;22317;47.936;12.742;2023-03-14T05:47:50;6.80;59.30
36280;DHT22;22317;47.936;12.742;2023-03-14T05:50:37;6.80;59.30
36280;DHT22;22317;47.936;12.742;2023-03-14T05:53:21;6.90;59.40
36280;DHT22;22317;47.936;12.742;2023-03-14T05:56:06;6.80;59.30
36280;DHT22;22317;47.936;12.742;2023-03-14T05:58:52;6.90;59.50
36280;DHT22;22317;47.936;12.742;2023-03-14T06:01:18;6.90;59.60
36280;DHT22;22317;47.936;12.742;2023-03-14T06:04:03;6.90;59.70
36280;DHT22;22317;47.936;12.742;2023-03-14T06:06:29;7.00;59.60
36280;DHT22;22317;47.936;12.742;2023-03-14T06:08:55;7.10;59.60
36280;DHT22;22317;47.936;12.742;2023-03-14T06:11:20;7.10;59.60
36280;DHT22;22317;47.936;12.742;2023-03-14T06:13:46;7.20;59.50
36280;DHT22;22317;47.936;12.742;2023-03-14T06:16:12;7.20;59.50
36280;DHT22;22317;47.936;12.742;2023-03-14T06:18:39;7.20;59.40
36280;DHT22;22317;47.936;12.742;2023-03-14T06:21:07;7.30;59.30
36280;DHT22;22317;47.936;12.742;2023-03-14T06:23:34;7.30;59.30
36280;DHT22;22317;47.936;12.742;2023-03-14T06:26:01;7.30;59.20
36280;DHT22;22317;47.936;12.742;2023-03-14T06:28:27;7.20;59.20
36280;DHT22;22317;47.936;12.742;2023-03-14T06:30:58;7.30;59.30
36280;DHT22;22317;47.936;12.742;2023-03-14T06:33:24;7.30;59.40
36280;DHT22;22317;47.936;12.742;2023-03-14T06:35:50;7.30;59.30
36280;DHT22;22317;47.936;12.742;2023-03-14T06:38:16;7.30;59.30
36280;DHT22;22317;47.936;12.742;2023-03-14T06:40:42;7.30;59.30
36280;DHT22;22317;47.936;12.742;2023-03-14T06:43:12;7.40;59.40
36280;DHT22;22317;47.936;12.742;2023-03-14T06:45:40;7.40;59.40
36280;DHT22;22317;47.936;12.742;2023-03-14T06:48:06;7.40;59.30
36280;DHT22;22317;47.936;12.742;2023-03-14T06:50:52;7.40;59.30
36280;DHT22;22317;47.936;12.742;2023-03-14T06:53:17;7.40;59.20
36280;DHT22;22317;47.936;12.742;2023-03-14T06:55:44;7.40;59.30
36280;DHT22;22317;47.936;12.742;2023-03-14T06:58:12;7.40;59.30
36280;DHT22;22317;47.936;12.742;2023-03-14T07:00:41;7.50;59.30
36280;DHT22;22317;47.936;12.742;2023-03-14T07:03:10;7.40;59.20
36280;DHT22;22317;47.936;12.742;2023-03-14T07:05:38;7.50;59.30
36280;DHT22;22317;47.936;12.742;2023-03-14T07:08:07;7.40;59.30
36280;DHT22;22317;47.936;12.742;2023-03-14T07:10:33;7.50;59.30
36280;DHT22;22317;47.936;12.742;2023-03-14T07:12:59;7.50;59.30
36280;DHT22;22317;47.936;12.742;2023-03-14T07:15:28;7.50;59.30
36280;DHT22;22317;47.936;12.742;2023-03-14T07:17:58;7.50;59.30
36280;DHT22;22317;47.936;12.742;2023-03-14T07:20:25;7.50;59.20
36280;DHT22;22317;47.936;12.742;2023-03-14T07:22:51;7.50;59.20
36280;DHT22;22317;47.936;12.742;2023-03-14T07:25:30;7.50;59.30
36280;DHT22;22317;47.936;12.742;2023-03-14T07:27:55;7.50;59.40
36280;DHT22;22317;47.936;12.742;2023-03-14T07:30:21;7.50;59.40
36280;DHT22;22317;47.936;12.742;2023-03-14T07:32:47;7.50;59.40
36280;DHT22;22317;47.936;12.742;2023-03-14T07:35:13;7.50;59.40
36280;DHT22;22317;47.936;12.742;2023-03-14T07:37:41;7.50;60.10
36280;DHT22;22317;47.936;12.742;2023-03-14T07:40:07;7.50;59.50
36280;DHT22;22317;47.936;12.742;2023-03-14T07:42:35;7.50;59.60
36280;DHT22;22317;47.936;12.742;2023-03-14T07:45:26;7.50;60.30
36280;DHT22;22317;47.936;12.742;2023-03-14T07:47:52;7.50;59.60
36280;DHT22;22317;47.936;12.742;2023-03-14T07:50:19;7.50;59.50
36280;DHT22;22317;47.936;12.742;2023-03-14T07:52:45;7.50;59.50
36280;DHT22;22317;47.936;12.742;2023-03-14T07:55:11;7.50;59.50
36280;DHT22;22317;47.936;12.742;2023-03-14T07:57:39;7.50;59.40
36280;DHT22;22317;47.936;12.742;2023-03-14T08:00:05;7.40;59.40
36280;DHT22;22317;47.936;12.742;2023-03-14T08:02:38;7.40;59.60
36280;DHT22;22317;47.936;12.742;2023-03-14T08:05:04;7.40;59.80
36280;DHT22;22317;47.936;12.742;2023-03-14T08:07:30;7.40;59.80
36280;DHT22;22317;47.936;12.742;2023-03-14T08:09:56;7.40;59.90
36280;DHT22;22317;47.936;12.742;2023-03-14T08:12:22;7.40;59.90
36280;DHT22;22317;47.936;12.742;2023-03-14T08:14:47;7.40;60.00
36280;DHT22;22317;47.936;12.742;2023-03-14T08:17:13;7.40;60.10
36280;DHT22;22317;47.936;12.742;2023-03-14T08:19:41;7.40;60.00
36280;DHT22;22317;47.936;12.742;2023-03-14T08:22:06;7.40;60.00
36280;DHT22;22317;47.936;12.742;2023-03-14T08:24:32;7.40;60.10
36280;DHT22;22317;47.936;12.742;2023-03-14T08:26:58;7.30;59.90
36280;DHT22;22317;47.936;12.742;2023-03-14T08:29:24;7.30;59.60
36280;DHT22;22317;47.936;12.742;2023-03-14T08:31:49;7.20;59.50
36280;DHT22;22317;47.936;12.742;2023-03-14T08:34:15;7.10;59.50
36280;DHT22;22317;47.936;12.742;2023-03-14T08:36:41;7.00;59.70
36280;DHT22;22317;47.936;12.742;2023-03-14T08:39:07;6.90;59.80
36280;DHT22;22317;47.936;12.742;2023-03-14T08:41:33;6.90;59.60
36280;DHT22;22317;47.936;12.742;2023-03-14T08:44:06;6.80;59.30
36280;DHT22;22317;47.936;12.742;2023-03-14T08:46:32;6.70;59.20
36280;DHT22;22317;47.936;12.742;2023-03-14T08:48:57;6.60;59.00
36280;DHT22;22317;47.936;12.742;2023-03-14T08:51:23;6.60;59.10
36280;DHT22;22317;47.936;12.742;2023-03-14T08:53:49;6.50;59.10
36280;DHT22;22317;47.936;12.742;2023-03-14T08:56:15;6.50;59.10
36280;DHT22;22317;47.936;12.742;2023-03-14T08:58:41;6.50;59.10
36280;DHT22;22317;47.936;12.742;2023-03-14T09:01:09;6.50;59.20
36280;DHT22;22317;47.936;12.742;2023-03-14T09:03:35;6.50;59.10
36280;DHT22;22317;47.936;12.742;2023-03-14T09:06:06;6.50;58.80
36280;DHT22;22317;47.936;12.742;2023-03-14T09:08:32;6.50;58.70
36280;DHT22;22317;47.936;12.742;2023-03-14T09:10:59;6.50;58.60
36280;DHT22;22317;47.936;12.742;2023-03-14T09:13:24;6.50;58.60
36280;DHT22;22317;47.936;12.742;2023-03-14T09:15:55;6.40;58.60
36280;DHT22;22317;47.936;12.742;2023-03-14T09:18:21;5.40;58.30
36280;DHT22;22317;47.936;12.742;2023-03-14T09:20:48;6.40;58.60
36280;DHT22;22317;47.936;12.742;2023-03-14T09:23:14;6.30;58.60
36280;DHT22;22317;47.936;12.742;2023-03-14T09:25:40;6.30;58.70
36280;DHT22;22317;47.936;12.742;2023-03-14T09:28:07;6.30;58.80
36280;DHT22;22317;47.936;12.742;2023-03-14T09:30:33;6.30;58.80
36280;DHT22;22317;47.936;12.742;2023-03-14T09:32:58;6.30;58.80
36280;DHT22;22317;47.936;12.742;2023-03-14T09:35:25;6.30;58.80
36280;DHT22;22317;47.936;12.742;2023-03-14T09:37:50;6.30;58.90
36280;DHT22;22317;47.936;12.742;2023-03-14T09:40:20;6.30;59.10
36280;DHT22;22317;47.936;12.742;2023-03-14T09:42:53;6.40;59.10
36280;DHT22;22317;47.936;12.742;2023-03-14T09:47:57;6.30;58.80
36280;DHT22;22317;47.936;12.742;2023-03-14T09:50:25;6.30;58.80
36280;DHT22;22317;47.936;12.742;2023-03-14T09:53:03;6.30;58.90
36280;DHT22;22317;47.936;12.742;2023-03-14T09:55:30;6.20;59.00
36280;DHT22;22317;47.936;12.742;2023-03-14T09:58:00;6.30;59.10
36280;DHT22;22317;47.936;12.742;2023-03-14T10:00:29;6.30;59.20
36280;DHT22;22317;47.936;12.742;2023-03-14T10:03:23;6.30;59.30
36280;DHT22;22317;47.936;12.742;2023-03-14T10:05:50;6.30;59.40
36280;DHT22;22317;47.936;12.742;2023-03-14T10:08:15;6.30;59.20
36280;DHT22;22317;47.936;12.742;2023-03-14T10:10:41;6.30;59.20
36280;DHT22;22317;47.936;12.742;2023-03-14T10:13:15;6.30;59.30
36280;DHT22;22317;47.936;12.742;2023-03-14T10:15:41;6.30;59.40
36280;DHT22;22317;47.936;12.742;2023-03-14T10:18:14;6.30;59.40
36280;DHT22;22317;47.936;12.742;2023-03-14T10:20:43;6.30;59.30
36280;DHT22;22317;47.936;12.742;2023-03-14T10:25:45;6.40;59.60
36280;DHT22;22317;47.936;12.742;2023-03-14T10:28:30;6.40;59.70
36280;DHT22;22317;47.936;12.742;2023-03-14T10:30:57;6.50;59.70
36280;DHT22;22317;47.936;12.742;2023-03-14T10:33:29;6.50;59.60
36280;DHT22;22317;47.936;12.742;2023-03-14T10:36:17;6.60;59.70
36280;DHT22;22317;47.936;12.742;2023-03-14T10:38:44;6.60;59.70
36280;DHT22;22317;47.936;12.742;2023-03-14T10:41:19;6.70;59.50
36280;DHT22;22317;47.936;12.742;2023-03-14T10:43:57;6.70;59.40
36280;DHT22;22317;47.936;12.742;2023-03-14T10:46:25;6.60;59.40
36280;DHT22;22317;47.936;12.742;2023-03-14T10:49:23;6.60;59.30
36280;DHT22;22317;47.936;12.742;2023-03-14T10:51:51;6.60;59.70
36280;DHT22;22317;47.936;12.742;2023-03-14T10:54:21;6.70;59.70
36280;DHT22;22317;47.936;12.742;2023-03-14T10:57:00;6.70;59.70
36280;DHT22;22317;47.936;12.742;2023-03-14T10:59:32;6.80;59.90
36280;DHT22;22317;47.936;12.742;2023-03-14T11:02:17;6.80;59.70
36280;DHT22;22317;47.936;12.742;2023-03-14T11:07:29;6.80;59.60
36280;DHT22;22317;47.936;12.742;2023-03-14T11:21:50;6.80;59.60
36280;DHT22;22317;47.936;12.742;2023-03-14T11:29:25;6.70;59.60
36280;DHT22;22317;47.936;12.742;2023-03-14T11:31:55;6.70;59.60
36280;DHT22;22317;47.936;12.742;2023-03-14T11:34:36;6.70;59.60
36280;DHT22;22317;47.936;12.742;2023-03-14T11:37:11;6.70;59.70
36280;DHT22;22317;47.936;12.742;2023-03-14T11:39:43;6.70;60.30
36280;DHT22;22317;47.936;12.742;2023-03-14T11:42:16;6.70;59.70
36280;DHT22;22317;47.936;12.742;2023-03-14T11:44:46;6.70;59.80
36280;DHT22;22317;47.936;12.742;2023-03-14T11:47:32;6.80;59.80
36280;DHT22;22317;47.936;12.742;2023-03-14T11:50:27;8.50;60.50
36280;DHT22;22317;47.936;12.742;2023-03-14T11:52:56;6.80;59.60
36280;DHT22;22317;47.936;12.742;2023-03-14T11:55:37;6.80;59.60
36280;DHT22;22317;47.936;12.742;2023-03-14T11:58:13;6.80;59.70
36280;DHT22;22317;47.936;12.742;2023-03-14T12:00:41;6.90;59.80
36280;DHT22;22317;47.936;12.742;2023-03-14T12:10:51;7.30;59.90
36280;DHT22;22317;47.936;12.742;2023-03-14T12:13:19;7.40;60.10
36280;DHT22;22317;47.936;12.742;2023-03-14T12:15:56;7.50;59.90
36280;DHT22;22317;47.936;12.742;2023-03-14T12:18:30;7.70;60.00
36280;DHT22;22317;47.936;12.742;2023-03-14T12:21:05;7.90;60.30
36280;DHT22;22317;47.936;12.742;2023-03-14T12:23:55;8.30;61.50
36280;DHT22;22317;47.936;12.742;2023-03-14T12:26:24;9.00;62.50
36280;DHT22;22317;47.936;12.742;2023-03-14T12:34:24;11.50;60.70
36280;DHT22;22317;47.936;12.742;2023-03-14T12:47:53;17.30;54.40
36280;DHT22;22317;47.936;12.742;2023-03-14T12:50:25;18.30;52.30
36280;DHT22;22317;47.936;12.742;2023-03-14T13:00:37;20.00;47.70
36280;DHT22;22317;47.936;12.742;2023-03-14T13:03:19;21.00;46.20
36280;DHT22;22317;47.936;12.742;2023-03-14T13:05:59;22.20;43.70
36280;DHT22;22317;47.936;12.742;2023-03-14T13:08:40;23.10;41.80
36280;DHT22;22317;47.936;12.742;2023-03-14T13:11:20;23.80;40.20
36280;DHT22;22317;47.936;12.742;2023-03-14T13:13:49;24.40;38.30
36280;DHT22;22317;47.936;12.742;2023-03-14T13:16:18;24.60;37.50
36280;DHT22;22317;47.936;12.742;2023-03-14T13:18:49;24.60;36.60
36280;DHT22;22317;47.936;12.742;2023-03-14T13:21:21;24.60;35.70
36280;DHT22;22317;47.936;12.742;2023-03-14T13:26:21;24.40;34.00
36280;DHT22;22317;47.936;12.742;2023-03-14T13:28:48;24.00;34.20
36280;DHT22;22317;47.936;12.742;2023-03-14T13:31:25;23.60;34.00
36280;DHT22;22317;47.936;12.742;2023-03-14T13:33:59;23.30;33.30
36280;DHT22;22317;47.936;12.742;2023-03-14T13:36:31;22.90;32.40
36280;DHT22;22317;47.936;12.742;2023-03-14T13:38:59;22.40;33.30
36280;DHT22;22317;47.936;12.742;2023-03-14T13:41:27;21.60;33.00
36280;DHT22;22317;47.936;12.742;2023-03-14T13:44:02;20.90;33.10
36280;DHT22;22317;47.936;12.742;2023-03-14T13:46:29;20.20;33.30
36280;DHT22;22317;47.936;12.742;2023-03-14T13:49:04;21.20;35.00
36280;DHT22;22317;47.936;12.742;2023-03-14T13:51:31;19.30;35.20
36280;DHT22;22317;47.936;12.742;2023-03-14T13:54:01;19.20;35.90
36280;DHT22;22317;47.936;12.742;2023-03-14T13:56:32;19.10;35.80
36280;DHT22;22317;47.936;12.742;2023-03-14T13:58:58;18.70;35.40
36280;DHT22;22317;47.936;12.742;2023-03-14T14:01:34;18.40;35.60
36280;DHT22;22317;47.936;12.742;2023-03-14T14:04:15;17.90;35.90
36280;DHT22;22317;47.936;12.742;2023-03-14T14:06:59;16.90;36.00
36280;DHT22;22317;47.936;12.742;2023-03-14T14:12:55;16.30;36.80
36280;DHT22;22317;47.936;12.742;2023-03-14T14:15:39;15.30;37.40
36280;DHT22;22317;47.936;12.742;2023-03-14T14:18:08;14.90;37.60
36280;DHT22;22317;47.936;12.742;2023-03-14T14:20:47;14.50;38.20
36280;DHT22;22317;47.936;12.742;2023-03-14T14:25:39;13.80;39.40
36280;DHT22;22317;47.936;12.742;2023-03-14T14:28:35;13.80;40.00
36280;DHT22;22317;47.936;12.742;2023-03-14T14:33:53;14.90;42.50
36280;DHT22;22317;47.936;12.742;2023-03-14T14:36:39;15.50;41.00
36280;DHT22;22317;47.936;12.742;2023-03-14T14:41:44;16.60;40.30
36280;DHT22;22317;47.936;12.742;2023-03-14T14:44:16;17.10;39.40
36280;DHT22;22317;47.936;12.742;2023-03-14T14:49:19;16.40;35.30
36280;DHT22;22317;47.936;12.742;2023-03-14T14:51:49;15.50;35.60
36280;DHT22;22317;47.936;12.742;2023-03-14T14:54:20;14.70;36.50
36280;DHT22;22317;47.936;12.742;2023-03-14T14:57:03;14.00;37.20
36280;DHT22;22317;47.936;12.742;2023-03-14T14:59:29;13.30;38.20
36280;DHT22;22317;47.936;12.742;2023-03-14T15:01:56;12.90;39.00
36280;DHT22;22317;47.936;12.742;2023-03-14T15:04:22;12.40;39.50
36280;DHT22;22317;47.936;12.742;2023-03-14T15:06:49;11.90;40.10
36280;DHT22;22317;47.936;12.742;2023-03-14T15:09:16;11.60;40.80
36280;DHT22;22317;47.936;12.742;2023-03-14T15:11:43;11.20;41.40
36280;DHT22;22317;47.936;12.742;2023-03-14T15:14:09;10.90;41.90
36280;DHT22;22317;47.936;12.742;2023-03-14T15:16:35;10.60;42.40
36280;DHT22;22317;47.936;12.742;2023-03-14T15:19:05;10.30;42.90
36280;DHT22;22317;47.936;12.742;2023-03-14T15:21:34;10.00;43.50
36280;DHT22;22317;47.936;12.742;2023-03-14T15:24:00;9.80;43.90
36280;DHT22;22317;47.936;12.742;2023-03-14T15:26:27;9.50;44.50
36280;DHT22;22317;47.936;12.742;2023-03-14T15:28:53;9.30;45.20
36280;DHT22;22317;47.936;12.742;2023-03-14T15:31:20;8.90;45.40
36280;DHT22;22317;47.936;12.742;2023-03-14T15:36:26;8.30;46.40
36280;DHT22;22317;47.936;12.742;2023-03-14T15:38:54;8.30;47.00
36280;DHT22;22317;47.936;12.742;2023-03-14T15:41:21;7.90;47.20
36280;DHT22;22317;47.936;12.742;2023-03-14T15:43:47;7.90;47.80
36280;DHT22;22317;47.936;12.742;2023-03-14T15:46:14;7.70;48.20
36280;DHT22;22317;47.936;12.742;2023-03-14T15:48:40;7.50;48.80
36280;DHT22;22317;47.936;12.742;2023-03-14T15:51:06;7.20;48.90
36280;DHT22;22317;47.936;12.742;2023-03-14T15:53:32;9.20;50.40
36280;DHT22;22317;47.936;12.742;2023-03-14T15:55:59;7.00;49.50
36280;DHT22;22317;47.936;12.742;2023-03-14T15:58:24;6.80;49.90
36280;DHT22;22317;47.936;12.742;2023-03-14T16:00:50;6.70;50.40
36280;DHT22;22317;47.936;12.742;2023-03-14T16:03:16;6.60;50.70
36280;DHT22;22317;47.936;12.742;2023-03-14T16:05:42;6.40;50.80
36280;DHT22;22317;47.936;12.742;2023-03-14T16:08:08;6.30;51.10
36280;DHT22;22317;47.936;12.742;2023-03-14T16:10:34;6.20;51.30
36280;DHT22;22317;47.936;12.742;2023-03-14T16:13:00;6.20;51.70
36280;DHT22;22317;47.936;12.742;2023-03-14T16:15:26;6.10;51.90
36280;DHT22;22317;47.936;12.742;2023-03-14T16:17:55;6.00;52.00
36280;DHT22;22317;47.936;12.742;2023-03-14T16:20:22;6.00;52.40
36280;DHT22;22317;47.936;12.742;2023-03-14T16:22:48;6.00;52.40
36280;DHT22;22317;47.936;12.742;2023-03-14T16:25:15;5.90;52.60
36280;DHT22;22317;47.936;12.742;2023-03-14T16:27:41;5.90;52.80
36280;DHT22;22317;47.936;12.742;2023-03-14T16:30:10;5.90;52.90
36280;DHT22;22317;47.936;12.742;2023-03-14T16:32:38;5.90;53.00
36280;DHT22;22317;47.936;12.742;2023-03-14T16:35:04;5.90;52.90
36280;DHT22;22317;47.936;12.742;2023-03-14T16:37:30;5.90;53.00
36280;DHT22;22317;47.936;12.742;2023-03-14T16:39:55;5.90;53.10
36280;DHT22;22317;47.936;12.742;2023-03-14T16:42:21;6.00;53.40
36280;DHT22;22317;47.936;12.742;2023-03-14T16:44:47;6.00;53.30
36280;DHT22;22317;47.936;12.742;2023-03-14T16:47:13;6.00;52.70
36280;DHT22;22317;47.936;12.742;2023-03-14T16:49:39;5.90;52.60
36280;DHT22;22317;47.936;12.742;2023-03-14T16:52:05;5.90;52.50
36280;DHT22;22317;47.936;12.742;2023-03-14T16:54:32;5.90;52.40
36280;DHT22;22317;47.936;12.742;2023-03-14T16:56:58;5.80;52.20
36280;DHT22;22317;47.936;12.742;2023-03-14T16:59:24;5.70;52.10
36280;DHT22;22317;47.936;12.742;2023-03-14T17:01:54;5.60;52.00
36280;DHT22;22317;47.936;12.742;2023-03-14T17:04:20;5.60;52.00
36280;DHT22;22317;47.936;12.742;2023-03-14T17:06:46;5.50;51.80
36280;DHT22;22317;47.936;12.742;2023-03-14T17:09:12;5.50;51.90
36280;DHT22;22317;47.936;12.742;2023-03-14T17:11:38;5.40;51.70